createdAt,value
2023-01-13T00:00:53.244Z,26.95
2023-01-13T00:01:53.235Z,26.93
2023-01-13T00:02:53.201Z,26.97
2023-01-13T00:03:53.197Z,26.95
2023-01-13T00:04:53.359Z,26.93
2023-01-13T00:05:53.179Z,26.93
2023-01-13T00:06:53.182Z,26.93
2023-01-13T00:07:53.165Z,26.93
2023-01-13T00:08:53.157Z,26.95
2023-01-13T00:09:53.149Z,26.93
2023-01-13T00:10:53.140Z,26.92
2023-01-13T00:11:53.130Z,26.97
2023-01-13T00:12:53.117Z,26.95
2023-01-13T00:13:53.129Z,26.95
2023-01-13T00:14:53.111Z,26.96
2023-01-13T00:15:53.109Z,26.95
2023-01-13T00:16:53.094Z,26.93
2023-01-13T00:17:53.096Z,26.97
2023-01-13T00:18:53.087Z,26.93
2023-01-13T00:19:53.079Z,26.95
2023-01-13T00:20:53.090Z,26.99
2023-01-13T00:21:53.070Z,26.92
2023-01-13T00:22:53.065Z,26.94
2023-01-13T00:23:53.057Z,26.94
2023-01-13T00:24:53.058Z,26.87
2023-01-13T00:25:53.055Z,26.86
2023-01-13T00:26:53.048Z,26.92
2023-01-13T00:27:53.052Z,26.93
2023-01-13T00:28:53.052Z,26.93
2023-01-13T00:29:53.035Z,26.87
2023-01-13T00:30:53.069Z,26.90
2023-01-13T00:31:53.077Z,26.92
2023-01-13T00:32:53.005Z,26.90
2023-01-13T00:33:53.004Z,26.90
2023-01-13T00:34:53.021Z,26.93
2023-01-13T00:35:52.996Z,26.93
2023-01-13T00:36:52.989Z,26.88
2023-01-13T00:37:52.989Z,26.91
2023-01-13T00:38:52.987Z,26.91
2023-01-13T00:39:52.975Z,26.90
2023-01-13T00:40:52.974Z,26.91
2023-01-13T00:41:52.956Z,26.90
2023-01-13T00:42:52.956Z,26.86
2023-01-13T00:43:52.970Z,26.88
2023-01-13T00:44:52.934Z,26.88
2023-01-13T00:45:52.925Z,26.90
2023-01-13T00:46:52.941Z,26.88
2023-01-13T00:47:52.909Z,26.88
2023-01-13T00:48:52.931Z,26.88
2023-01-13T00:49:52.899Z,26.84
2023-01-13T00:50:52.897Z,26.88
2023-01-13T00:51:52.881Z,26.87
2023-01-13T00:52:52.872Z,26.87
2023-01-13T00:53:52.871Z,26.82
2023-01-13T00:54:52.851Z,26.91
2023-01-13T00:55:52.843Z,26.85
2023-01-13T00:56:52.836Z,26.87
2023-01-13T00:57:52.822Z,26.87
2023-01-13T00:58:52.817Z,26.84
2023-01-13T00:59:52.799Z,26.85
2023-01-13T01:00:52.873Z,26.84
2023-01-13T01:01:52.889Z,26.85
2023-01-13T01:02:52.768Z,26.88
2023-01-13T01:03:52.766Z,26.85
2023-01-13T01:04:52.749Z,26.84
2023-01-13T01:05:52.738Z,26.87
2023-01-13T01:06:52.727Z,26.82
2023-01-13T01:07:52.725Z,26.81
2023-01-13T01:08:52.714Z,26.88
2023-01-13T01:09:52.714Z,26.87
2023-01-13T01:10:52.717Z,26.86
2023-01-13T01:11:52.730Z,26.88
2023-01-13T01:12:52.726Z,26.90
2023-01-13T01:13:52.770Z,26.85
2023-01-13T01:14:52.724Z,26.81
2023-01-13T01:15:52.731Z,26.87
2023-01-13T01:16:52.707Z,26.84
2023-01-13T01:17:52.691Z,26.87
2023-01-13T01:18:52.676Z,26.88
2023-01-13T01:19:52.662Z,26.86
2023-01-13T01:20:52.665Z,26.88
2023-01-13T01:21:52.650Z,26.85
2023-01-13T01:22:52.636Z,26.82
2023-01-13T01:23:52.644Z,26.85
2023-01-13T01:24:52.624Z,26.82
2023-01-13T01:25:52.620Z,26.82
2023-01-13T01:26:52.616Z,26.85
2023-01-13T01:27:52.616Z,26.87
2023-01-13T01:28:52.617Z,26.77
2023-01-13T01:29:52.610Z,26.85
2023-01-13T01:30:52.606Z,26.82
2023-01-13T01:31:52.611Z,26.79
2023-01-13T01:32:52.607Z,26.78
2023-01-13T01:33:52.593Z,26.77
2023-01-13T01:34:52.589Z,26.79
2023-01-13T01:35:52.575Z,26.84
2023-01-13T01:36:52.584Z,26.84
2023-01-13T01:37:52.557Z,26.82
2023-01-13T01:38:52.552Z,26.85
2023-01-13T01:39:52.544Z,26.84
2023-01-13T01:40:52.543Z,26.81
2023-01-13T01:41:52.527Z,26.81
2023-01-13T01:42:52.508Z,26.82
2023-01-13T01:43:52.494Z,26.82
2023-01-13T01:44:52.488Z,26.81
2023-01-13T01:45:52.474Z,26.88
2023-01-13T01:46:52.519Z,26.81
2023-01-13T01:47:52.451Z,26.82
2023-01-13T01:48:52.442Z,26.84
2023-01-13T01:49:52.457Z,26.81
2023-01-13T01:50:52.421Z,26.81
2023-01-13T01:51:52.411Z,26.81
2023-01-13T01:52:52.409Z,26.82
2023-01-13T01:53:52.390Z,26.81
2023-01-13T01:54:52.385Z,26.81
2023-01-13T01:55:52.381Z,26.81
2023-01-13T01:56:52.376Z,26.75
2023-01-13T01:57:52.365Z,26.79
2023-01-13T01:58:52.358Z,26.79
2023-01-13T01:59:52.364Z,26.77
2023-01-13T02:00:52.491Z,26.73
2023-01-13T02:01:52.468Z,26.79
2023-01-13T02:02:52.341Z,26.78
2023-01-13T02:03:52.339Z,26.81
2023-01-13T02:04:52.324Z,26.79
2023-01-13T02:05:52.327Z,26.81
2023-01-13T02:06:52.324Z,26.78
2023-01-13T02:07:52.328Z,26.77
2023-01-13T02:08:52.314Z,26.79
2023-01-13T02:09:52.314Z,26.81
2023-01-13T02:10:52.307Z,26.79
2023-01-13T02:11:52.319Z,26.79
2023-01-13T02:12:52.310Z,26.77
2023-01-13T03:52:51.541Z,26.84
2023-01-13T03:53:51.534Z,26.81
2023-01-13T03:54:51.518Z,26.87
2023-01-13T05:04:51.121Z,26.72
2023-01-13T05:05:50.981Z,26.72
2023-01-13T05:06:50.965Z,26.76
2023-01-13T05:07:50.960Z,26.76
2023-01-13T05:08:50.954Z,26.73
2023-01-13T05:09:50.948Z,26.70
2023-01-13T05:10:50.946Z,26.75
2023-01-13T05:11:50.919Z,26.72
2023-01-13T05:12:50.945Z,26.70
2023-01-13T05:13:50.896Z,26.70
2023-01-13T05:14:50.887Z,26.73
2023-01-13T05:15:50.955Z,26.73
2023-01-13T05:16:50.864Z,26.73
2023-01-13T05:17:50.860Z,26.72
2023-01-13T05:18:50.830Z,26.75
2023-01-13T05:19:50.814Z,26.73
2023-01-13T05:20:50.802Z,26.73
2023-01-13T05:21:50.792Z,26.72
2023-01-13T05:22:50.789Z,26.72
2023-01-13T05:23:50.753Z,26.75
2023-01-13T05:24:50.729Z,26.75
2023-01-13T05:25:50.749Z,26.72
2023-01-13T05:26:50.704Z,26.69
2023-01-13T05:27:50.689Z,26.76
2023-01-13T05:28:50.669Z,26.69
2023-01-13T05:29:50.659Z,26.72
2023-01-13T05:30:50.683Z,26.75
2023-01-13T05:31:50.643Z,26.79
2023-01-13T05:32:50.619Z,26.70
2023-01-13T05:33:50.619Z,26.73
2023-01-13T05:34:50.597Z,26.70
2023-01-13T05:35:50.606Z,26.72
2023-01-13T05:36:50.600Z,26.73
2023-01-13T05:37:50.562Z,26.76
2023-01-13T05:38:50.542Z,26.70
2023-01-13T05:39:50.532Z,26.74
2023-01-13T05:40:50.522Z,26.72
2023-01-13T05:41:50.505Z,26.75
2023-01-13T05:42:50.501Z,26.76
2023-01-13T05:43:50.477Z,26.72
2023-01-13T05:44:50.456Z,26.72
2023-01-13T05:45:50.447Z,26.70
2023-01-13T05:46:50.448Z,26.75
2023-01-13T05:47:50.419Z,26.72
2023-01-13T05:48:50.388Z,26.70
2023-01-13T05:49:50.375Z,26.72
2023-01-13T05:50:50.377Z,26.69
2023-01-13T05:51:50.356Z,26.76
2023-01-13T05:52:50.357Z,26.69
2023-01-13T05:53:50.341Z,26.67
2023-01-13T05:54:50.319Z,26.69
2023-01-13T05:55:50.313Z,26.72
2023-01-13T05:56:50.292Z,26.69
2023-01-13T05:57:50.287Z,26.69
2023-01-13T05:58:50.267Z,26.67
2023-01-13T05:59:50.254Z,26.72
2023-01-13T06:00:50.261Z,26.69
2023-01-13T06:01:50.224Z,26.67
2023-01-13T06:02:50.286Z,26.63
2023-01-13T06:03:50.201Z,26.58
2023-01-13T06:04:50.189Z,26.57
2023-01-13T06:05:50.173Z,26.54
2023-01-13T06:06:50.153Z,26.50
2023-01-13T06:07:50.158Z,26.48
2023-01-13T06:08:50.126Z,26.52
2023-01-13T06:09:50.119Z,26.46
2023-01-13T06:10:50.105Z,26.48
2023-01-13T06:11:50.105Z,26.45
2023-01-13T06:12:50.080Z,26.45
2023-01-13T06:13:50.077Z,26.37
2023-01-13T06:14:50.051Z,26.38
2023-01-13T06:15:50.071Z,26.39
2023-01-13T06:16:50.027Z,26.33
2023-01-13T06:17:50.038Z,26.36
2023-01-13T06:18:49.992Z,26.33
2023-01-13T06:19:49.997Z,26.30
2023-01-13T06:20:49.974Z,26.32
2023-01-13T06:21:49.955Z,26.30
2023-01-13T06:22:49.947Z,26.28
2023-01-13T06:23:49.932Z,26.33
2023-01-13T06:24:49.929Z,26.27
2023-01-13T06:25:49.920Z,26.19
2023-01-13T06:26:49.900Z,26.21
2023-01-13T06:27:49.890Z,26.23
2023-01-13T06:28:49.887Z,26.21
2023-01-13T06:29:49.873Z,26.16
2023-01-13T06:30:49.858Z,26.35
2023-01-13T06:31:49.903Z,26.30
2023-01-13T06:32:49.839Z,26.30
2023-01-13T06:33:49.838Z,26.23
2023-01-13T06:34:49.826Z,26.42
2023-01-13T06:35:49.809Z,26.56
2023-01-13T06:36:49.784Z,26.79
2023-01-13T06:37:49.790Z,26.70
2023-01-13T06:38:49.756Z,26.68
2023-01-13T06:39:49.741Z,26.72
2023-01-13T06:40:49.733Z,26.79
2023-01-13T06:41:49.720Z,27.00
2023-01-13T06:42:49.711Z,27.01
2023-01-13T06:43:49.695Z,27.05
2023-01-13T06:44:49.679Z,27.15
2023-01-13T06:45:49.669Z,27.48
2023-01-13T06:46:49.739Z,27.78
2023-01-13T06:47:49.615Z,28.56
2023-01-13T06:48:49.600Z,28.25
2023-01-13T06:49:49.569Z,28.46
2023-01-13T06:50:49.581Z,28.68
2023-01-13T06:51:49.521Z,28.70
2023-01-13T06:52:49.499Z,28.94
2023-01-13T06:53:49.494Z,28.88
2023-01-13T06:54:49.457Z,28.93
2023-01-13T06:55:49.416Z,29.06
2023-01-13T06:56:49.389Z,29.05
2023-01-13T06:57:49.369Z,29.10
2023-01-13T06:58:49.339Z,29.11
2023-01-13T06:59:50.610Z,29.16
2023-01-13T07:00:49.365Z,29.26
2023-01-13T07:01:49.498Z,29.30
2023-01-13T07:02:49.287Z,29.39
2023-01-13T07:03:49.203Z,29.49
2023-01-13T07:04:49.185Z,29.50
2023-01-13T07:05:49.158Z,29.68
2023-01-13T07:06:49.130Z,29.66
2023-01-13T07:07:49.102Z,29.95
2023-01-13T07:08:49.070Z,29.94
2023-01-13T07:09:49.046Z,30.04
2023-01-13T07:10:49.037Z,30.17
2023-01-13T07:11:49.012Z,30.21
2023-01-13T07:12:48.984Z,30.39
2023-01-13T07:13:48.975Z,30.41
2023-01-13T07:14:48.950Z,30.41
2023-01-13T07:15:48.950Z,30.42
2023-01-13T07:16:48.991Z,30.57
2023-01-13T07:17:48.894Z,30.60
2023-01-13T09:07:46.716Z,33.02
2023-01-13T09:08:46.706Z,33.02
2023-01-13T09:09:46.680Z,32.97
2023-01-13T09:10:46.673Z,32.97
2023-01-13T09:11:46.656Z,33.06
2023-01-13T09:12:46.616Z,33.12
2023-01-13T09:13:46.604Z,33.13
2023-01-13T09:14:46.577Z,33.07
2023-01-13T09:15:46.664Z,33.12
2023-01-13T09:16:46.533Z,33.15
2023-01-13T09:17:46.497Z,33.34
2023-01-13T09:18:46.483Z,33.22
2023-01-13T09:19:46.459Z,33.24
2023-01-13T09:20:46.437Z,33.20
2023-01-13T09:21:46.424Z,33.15
2023-01-13T09:22:46.400Z,33.26
2023-01-13T09:23:46.375Z,33.29
2023-01-13T09:24:46.387Z,33.23
2023-01-13T09:25:46.329Z,33.23
2023-01-13T09:26:46.351Z,33.29
2023-01-13T09:27:46.295Z,33.31
2023-01-13T09:28:46.266Z,33.42
2023-01-13T09:29:46.248Z,33.47
2023-01-13T09:30:46.295Z,33.60
2023-01-13T09:31:46.196Z,33.58
2023-01-13T09:32:46.193Z,33.45
2023-01-13T09:33:46.158Z,33.28
2023-01-13T09:34:46.135Z,32.97
2023-01-13T09:35:46.116Z,33.11
2023-01-13T09:36:46.093Z,32.71
2023-01-13T09:37:46.068Z,32.18
2023-01-13T09:38:46.043Z,31.94
2023-01-13T09:39:46.026Z,31.86
2023-01-13T09:40:46.007Z,31.80
2023-01-13T09:41:45.975Z,31.62
2023-01-13T09:42:45.950Z,31.49
2023-01-13T09:43:45.927Z,31.46
2023-01-13T09:44:45.914Z,31.34
2023-01-13T09:45:45.900Z,31.31
2023-01-13T09:46:45.880Z,31.27
2023-01-13T09:47:45.868Z,31.04
2023-01-13T09:48:45.850Z,30.91
2023-01-13T09:49:45.833Z,31.17
2023-01-13T09:50:45.818Z,31.71
2023-01-13T09:51:45.891Z,31.51
2023-01-13T09:52:45.789Z,31.82
2023-01-13T09:53:45.765Z,31.87
2023-01-13T09:54:45.749Z,32.04
2023-01-13T09:55:45.718Z,32.04
2023-01-13T09:56:45.713Z,32.19
2023-01-13T09:57:45.692Z,32.24
2023-01-13T09:58:45.681Z,32.49
2023-01-13T09:59:45.655Z,32.72
2023-01-13T10:00:45.618Z,32.59
2023-01-13T10:01:45.592Z,32.59
2023-01-13T10:02:45.578Z,32.76
2023-01-13T10:03:45.611Z,32.79
2023-01-13T10:04:45.542Z,32.73
2023-01-13T10:05:45.492Z,32.75
2023-01-13T10:06:45.469Z,33.18
2023-01-13T10:07:45.456Z,32.88
2023-01-13T10:08:45.416Z,32.90
2023-01-13T10:09:45.386Z,32.97
2023-01-13T10:10:45.359Z,32.86
2023-01-13T10:11:45.330Z,32.99
2023-01-13T10:12:45.344Z,32.89
2023-01-13T10:13:45.284Z,32.89
2023-01-13T10:14:45.260Z,32.89
2023-01-13T10:15:45.272Z,33.04
2023-01-13T10:16:45.206Z,32.94
2023-01-13T10:17:45.179Z,33.10
2023-01-13T10:18:45.151Z,33.03
2023-01-13T10:19:45.132Z,33.05
2023-01-13T10:20:45.120Z,33.53
2023-01-13T10:21:45.075Z,33.15
2023-01-13T10:22:45.061Z,33.16
2023-01-13T10:23:45.043Z,33.15
2023-01-13T10:24:45.009Z,33.06
2023-01-13T10:25:44.992Z,33.12
2023-01-13T10:26:44.953Z,33.18
2023-01-13T10:27:44.936Z,33.07
2023-01-13T10:28:44.945Z,33.29
2023-01-13T10:29:44.888Z,33.09
2023-01-13T10:30:44.882Z,33.08
2023-01-13T10:31:44.842Z,33.14
2023-01-13T10:32:44.821Z,33.06
2023-01-13T10:33:44.811Z,33.06
2023-01-13T10:34:44.783Z,33.06
2023-01-13T10:35:44.749Z,33.11
2023-01-13T10:36:44.717Z,33.19
2023-01-13T10:37:44.691Z,33.28
2023-01-13T10:38:44.718Z,33.28
2023-01-13T10:39:44.663Z,33.40
2023-01-13T10:40:44.619Z,33.45
2023-01-13T10:41:44.594Z,34.05
2023-01-13T10:42:44.576Z,32.51
2023-01-13T10:43:44.574Z,29.01
2023-01-13T10:44:44.520Z,25.80
2023-01-13T10:45:44.493Z,23.84
2023-01-13T10:46:44.532Z,22.61
2023-01-13T10:47:44.460Z,22.30
2023-01-13T10:48:44.455Z,23.57
2023-01-13T10:49:44.440Z,21.57
2023-01-13T10:50:44.435Z,21.81
2023-01-13T10:51:44.432Z,21.81
2023-01-13T10:52:44.443Z,21.52
2023-01-13T10:53:44.433Z,22.91
2023-01-13T10:54:44.443Z,25.57
2023-01-13T10:55:44.413Z,26.65
2023-01-13T10:56:44.424Z,27.25
2023-01-13T10:57:44.395Z,28.55
2023-01-13T10:58:44.390Z,28.41
2023-01-13T10:59:44.381Z,28.30
2023-01-13T11:00:44.444Z,28.23
2023-01-13T11:01:44.426Z,28.15
2023-01-13T11:02:44.353Z,28.12
2023-01-13T11:03:44.315Z,28.04
2023-01-13T11:04:44.329Z,27.73
2023-01-13T11:05:44.290Z,28.01
2023-01-13T11:06:44.292Z,27.96
2023-01-13T11:07:44.244Z,27.77
2023-01-13T11:08:44.224Z,27.27
2023-01-13T11:09:44.189Z,27.35
2023-01-13T11:10:44.172Z,27.39
2023-01-13T11:11:44.165Z,27.21
2023-01-13T11:12:44.119Z,26.96
2023-01-13T11:13:44.107Z,26.80
2023-01-13T11:14:44.079Z,26.93
2023-01-13T11:15:44.056Z,26.93
2023-01-13T11:16:53.034Z,26.57
2023-01-13T11:17:45.016Z,26.65
2023-01-13T11:18:44.001Z,26.12
2023-01-13T11:19:43.967Z,26.59
2023-01-13T11:20:43.961Z,26.33
2023-01-13T11:21:43.928Z,26.61
2023-01-13T11:22:43.931Z,26.66
2023-01-13T11:23:44.150Z,26.80
2023-01-13T11:24:43.862Z,26.41
2023-01-13T11:25:43.846Z,26.52
2023-01-13T11:26:43.810Z,26.60
2023-01-13T11:27:44.608Z,26.35
2023-01-13T11:28:43.774Z,26.56
2023-01-13T11:29:43.739Z,26.51
2023-01-13T11:30:43.719Z,26.54
2023-01-13T11:31:43.723Z,26.63
2023-01-13T11:32:43.680Z,26.68
2023-01-13T11:33:43.677Z,26.77
2023-01-13T11:34:43.649Z,26.82
2023-01-13T11:35:43.646Z,26.97
2023-01-13T11:36:43.611Z,27.32
2023-01-13T11:37:43.584Z,27.69
2023-01-13T11:38:43.580Z,27.91
2023-01-13T11:39:43.548Z,27.93
2023-01-13T11:40:43.523Z,28.18
2023-01-13T11:41:43.489Z,28.60
2023-01-13T11:42:43.490Z,29.21
2023-01-13T11:43:43.435Z,29.46
2023-01-13T11:44:43.448Z,30.08
2023-01-13T11:45:43.393Z,29.62
2023-01-13T11:46:43.485Z,29.47
2023-01-13T11:47:43.332Z,29.21
2023-01-13T11:48:43.365Z,29.12
2023-01-13T11:49:43.283Z,29.29
2023-01-13T11:50:43.264Z,29.38
2023-01-13T11:51:43.223Z,28.79
2023-01-13T11:52:43.198Z,28.90
2023-01-13T11:53:43.176Z,28.96
2023-01-13T11:54:43.162Z,29.06
2023-01-13T11:55:43.139Z,28.79
2023-01-13T11:56:43.110Z,28.65
2023-01-13T11:57:43.078Z,28.68
2023-01-13T11:58:50.770Z,28.90
2023-01-13T11:59:44.046Z,28.88
2023-01-13T12:00:43.038Z,28.56
2023-01-13T12:01:43.043Z,28.61
2023-01-13T12:02:42.985Z,28.76
2023-01-13T12:03:42.978Z,28.57
2023-01-13T12:04:42.969Z,28.59
2023-01-13T12:05:42.959Z,28.47
2023-01-13T12:06:42.936Z,28.63
2023-01-13T12:07:42.923Z,28.42
2023-01-13T12:08:42.912Z,28.34
2023-01-13T12:09:42.894Z,28.35
2023-01-13T12:10:42.894Z,28.45
2023-01-13T12:11:42.877Z,28.38
2023-01-13T12:12:42.861Z,28.24
2023-01-13T12:13:42.864Z,28.30
2023-01-13T12:14:42.871Z,28.56
2023-01-13T12:15:42.834Z,28.41
2023-01-13T12:41:42.315Z,28.28
2023-01-13T12:42:42.306Z,28.26
2023-01-13T12:43:42.290Z,28.15
2023-01-13T12:44:42.252Z,28.01
2023-01-13T12:45:42.273Z,27.96
2023-01-13T12:46:42.213Z,27.95
2023-01-13T12:47:42.196Z,27.91
2023-01-13T12:48:42.165Z,27.86
2023-01-13T12:49:42.154Z,27.72
2023-01-13T12:50:42.129Z,27.71
2023-01-13T12:51:42.106Z,27.63
2023-01-13T12:52:42.086Z,27.63
2023-01-13T12:53:42.074Z,27.56
2023-01-13T12:54:42.055Z,27.60
2023-01-13T12:55:42.074Z,27.37
2023-01-13T12:56:42.037Z,27.39
2023-01-13T12:57:41.994Z,27.39
2023-01-13T12:58:41.973Z,27.47
2023-01-13T12:59:41.955Z,27.32
2023-01-13T13:00:41.925Z,27.22
2023-01-13T13:01:41.941Z,27.20
2023-01-13T13:02:41.946Z,27.22
2023-01-13T13:03:41.868Z,27.14
2023-01-13T13:04:41.878Z,27.14
2023-01-13T13:05:41.838Z,27.12
2023-01-13T13:06:41.807Z,27.05
2023-01-13T13:07:41.787Z,27.04
2023-01-13T13:08:41.845Z,26.83
2023-01-13T13:09:41.748Z,26.83
2023-01-13T13:10:41.718Z,26.86
2023-01-13T13:11:41.720Z,26.82
2023-01-13T13:12:41.679Z,26.69
2023-01-13T13:13:41.662Z,26.75
2023-01-13T13:14:41.745Z,26.65
2023-01-13T13:15:41.617Z,26.67
2023-01-13T13:16:41.700Z,26.67
2023-01-13T13:17:41.584Z,26.66
2023-01-13T13:18:41.571Z,26.58
2023-01-13T13:19:41.550Z,26.63
2023-01-13T13:20:41.529Z,26.52
2023-01-13T13:21:41.518Z,26.57
2023-01-13T13:22:41.496Z,26.46
2023-01-13T13:23:41.494Z,26.42
2023-01-13T13:24:41.454Z,26.39
2023-01-13T13:25:41.469Z,26.35
2023-01-13T13:26:41.491Z,26.35
2023-01-13T13:27:41.394Z,26.36
2023-01-13T13:28:41.373Z,26.36
2023-01-13T13:29:41.363Z,26.35
2023-01-13T13:30:41.378Z,26.30
2023-01-13T13:31:41.328Z,26.36
2023-01-13T13:32:41.300Z,26.27
2023-01-13T13:33:41.292Z,26.31
2023-01-13T13:34:41.273Z,26.40
2023-01-13T13:35:41.270Z,26.22
2023-01-13T13:36:41.237Z,26.21
2023-01-13T13:37:41.211Z,26.27
2023-01-13T13:38:41.215Z,26.30
2023-01-13T13:39:41.193Z,26.33
2023-01-13T13:40:41.176Z,26.45
2023-01-13T13:41:41.175Z,26.42
2023-01-13T13:42:41.149Z,26.47
2023-01-13T13:43:41.140Z,26.47
2023-01-13T13:44:41.124Z,26.47
2023-01-13T13:45:41.120Z,26.45
2023-01-13T13:46:41.106Z,26.46
2023-01-13T13:47:41.088Z,26.50
2023-01-13T13:48:41.071Z,26.59
2023-01-13T13:49:41.157Z,26.53
2023-01-13T13:50:41.031Z,26.56
2023-01-13T13:51:41.020Z,26.58
2023-01-13T13:52:41.008Z,26.59
2023-01-13T13:53:41.000Z,26.61
2023-01-13T13:54:41.014Z,26.61
2023-01-13T13:55:40.973Z,26.58
2023-01-13T13:56:40.989Z,26.64
2023-01-13T13:57:40.945Z,26.67
2023-01-13T13:58:40.929Z,26.67
2023-01-13T13:59:40.924Z,26.66
2023-01-13T14:00:40.894Z,26.71
2023-01-13T14:01:41.100Z,26.67
2023-01-13T14:02:40.862Z,26.70
2023-01-13T14:03:40.845Z,26.66
2023-01-13T14:04:40.860Z,26.68
2023-01-13T14:05:40.814Z,26.70
2023-01-13T14:06:40.801Z,26.72
2023-01-13T14:07:40.787Z,26.68
2023-01-13T14:08:40.733Z,26.73
2023-01-13T14:09:40.720Z,26.77
2023-01-13T14:10:40.719Z,26.76
2023-01-13T14:11:40.697Z,26.73
2023-01-13T14:12:40.672Z,26.79
2023-01-13T14:13:40.660Z,26.74
2023-01-13T14:14:40.646Z,26.74
2023-01-13T14:15:40.657Z,26.82
2023-01-13T14:16:40.625Z,26.79
2023-01-13T14:17:40.612Z,26.77
2023-01-13T14:18:40.598Z,26.83
2023-01-13T14:19:40.602Z,26.83
2023-01-13T14:20:40.594Z,26.82
2023-01-13T14:21:40.557Z,26.83
2023-01-13T14:22:40.543Z,26.81
2023-01-13T14:23:40.539Z,26.87
2023-01-13T14:24:40.516Z,26.84
2023-01-13T14:25:40.512Z,26.89
2023-01-13T14:26:40.502Z,26.84
2023-01-13T14:27:40.498Z,26.84
2023-01-13T14:28:40.504Z,26.84
2023-01-13T14:29:40.468Z,26.87
2023-01-13T14:30:40.450Z,26.86
2023-01-13T14:31:40.442Z,26.84
2023-01-13T14:32:40.420Z,26.84
2023-01-13T14:33:40.408Z,26.89
2023-01-13T14:34:40.399Z,26.83
2023-01-13T14:35:40.398Z,26.89
2023-01-13T14:36:40.389Z,26.86
2023-01-13T14:37:40.380Z,26.90
2023-01-13T14:38:40.376Z,26.98
2023-01-13T14:39:40.372Z,26.90
2023-01-13T14:40:40.356Z,26.90
2023-01-13T14:41:40.361Z,26.87
2023-01-13T14:42:40.349Z,26.98
2023-01-13T14:43:40.327Z,26.96
2023-01-13T14:44:40.334Z,26.96
2023-01-13T14:45:40.309Z,26.92
2023-01-13T14:46:40.339Z,26.93
2023-01-13T14:47:40.294Z,26.96
2023-01-13T14:48:40.278Z,26.96
2023-01-13T14:49:40.262Z,26.97
2023-01-13T14:50:40.249Z,26.97
2023-01-13T14:51:40.244Z,26.94
2023-01-13T14:52:40.253Z,27.05
2023-01-13T14:53:40.228Z,27.03
2023-01-13T14:54:40.220Z,27.05
2023-01-13T14:55:40.225Z,27.03
2023-01-13T14:56:40.213Z,27.00
2023-01-13T14:57:40.192Z,27.03
2023-01-13T14:58:40.167Z,26.97
2023-01-13T14:59:40.161Z,27.00
2023-01-13T15:00:40.131Z,27.04
2023-01-13T15:01:40.286Z,27.01
2023-01-13T15:02:40.138Z,27.04
2023-01-13T15:03:42.019Z,27.01
2023-01-13T15:04:40.063Z,27.01
2023-01-13T15:05:40.036Z,27.01
2023-01-13T15:06:40.025Z,27.01
2023-01-13T15:07:40.014Z,27.06
2023-01-13T15:08:40.026Z,27.01
2023-01-13T15:09:39.981Z,27.04
2023-01-13T15:10:39.958Z,27.04
2023-01-13T15:11:39.945Z,27.01
2023-01-13T15:12:39.936Z,27.00
2023-01-13T15:13:40.961Z,27.03
2023-01-13T15:14:39.896Z,27.03
2023-01-13T15:15:39.886Z,27.06
2023-01-13T15:16:39.876Z,27.07
2023-01-13T15:17:39.860Z,27.07
2023-01-13T15:18:39.840Z,27.03
2023-01-13T15:19:39.818Z,27.07
2023-01-13T15:20:39.796Z,27.07
2023-01-13T15:21:39.777Z,27.06
2023-01-13T15:22:39.752Z,27.06
2023-01-13T15:23:39.752Z,27.07
2023-01-13T15:24:39.712Z,27.09
2023-01-13T15:25:39.711Z,27.07
2023-01-13T15:26:39.685Z,27.11
2023-01-13T15:27:39.681Z,27.04
2023-01-13T15:28:39.668Z,27.07
2023-01-13T15:29:39.655Z,27.09
2023-01-13T15:30:39.669Z,27.09
2023-01-13T15:31:39.624Z,27.10
2023-01-13T15:32:39.609Z,27.04
2023-01-13T15:33:39.597Z,27.04
2023-01-13T15:34:39.562Z,27.09
2023-01-13T15:35:39.545Z,27.06
2023-01-13T15:36:39.538Z,27.01
2023-01-13T15:37:39.504Z,27.04
2023-01-13T15:38:39.480Z,27.07
2023-01-13T15:39:39.474Z,27.11
2023-01-13T15:40:39.443Z,27.08
2023-01-13T15:41:39.432Z,27.10
2023-01-13T15:42:39.420Z,27.13
2023-01-13T15:43:39.402Z,27.13
2023-01-13T15:44:39.374Z,27.11
2023-01-13T15:45:39.356Z,27.02
2023-01-13T15:46:39.529Z,27.08
2023-01-13T15:47:39.339Z,27.11
2023-01-13T15:48:39.321Z,27.10
2023-01-13T15:49:39.306Z,27.07
2023-01-13T15:50:39.292Z,27.08
2023-01-13T15:51:39.286Z,27.13
2023-01-13T15:52:39.276Z,27.05
2023-01-13T15:53:39.284Z,27.06
2023-01-13T15:54:39.274Z,27.13
2023-01-13T15:55:39.245Z,27.11
2023-01-13T15:56:39.255Z,27.10
2023-01-13T15:57:39.230Z,27.11
2023-01-13T15:58:39.217Z,27.17
2023-01-13T15:59:39.202Z,27.15
2023-01-13T16:00:39.223Z,27.15
2023-01-13T16:01:39.243Z,27.14
2023-01-13T16:02:39.266Z,27.11
2023-01-13T16:03:39.163Z,27.13
2023-01-13T16:04:39.145Z,27.14
2023-01-13T16:05:39.138Z,27.12
2023-01-13T16:06:39.134Z,27.12
2023-01-13T16:07:39.130Z,27.12
2023-01-13T16:08:39.114Z,27.11
2023-01-13T16:09:39.113Z,27.14
2023-01-13T16:10:39.103Z,27.17
2023-01-13T16:11:39.094Z,27.14
2023-01-13T16:12:39.091Z,27.15
2023-01-13T16:13:39.097Z,27.09
2023-01-13T16:14:39.101Z,27.14
2023-01-13T16:15:39.065Z,27.09
2023-01-13T16:16:39.097Z,27.18
2023-01-13T16:17:39.049Z,27.15
2023-01-13T16:18:39.035Z,27.14
2023-01-13T16:19:39.028Z,27.09
2023-01-13T16:20:39.013Z,27.15
2023-01-13T16:21:38.998Z,27.12
2023-01-13T16:22:38.981Z,27.10
2023-01-13T16:23:38.971Z,27.14
2023-01-13T16:24:38.969Z,27.17
2023-01-13T16:25:38.960Z,27.17
2023-01-13T16:26:38.982Z,27.17
2023-01-13T16:27:38.949Z,27.18
2023-01-13T16:28:38.935Z,27.15
2023-01-13T16:29:38.917Z,27.18
2023-01-13T16:30:38.909Z,27.21
2023-01-13T16:31:38.933Z,27.18
2023-01-13T18:53:37.096Z,27.38
2023-01-13T20:22:35.819Z,27.23
2023-01-13T20:23:35.804Z,27.28
2023-01-13T20:24:35.784Z,27.28
2023-01-13T20:25:35.833Z,27.25
2023-01-13T20:26:35.756Z,27.25
2023-01-13T20:27:35.749Z,27.22
2023-01-13T20:28:35.734Z,27.11
2023-01-13T20:29:35.714Z,27.22
2023-01-13T20:30:35.701Z,27.20
2023-01-13T20:31:35.723Z,27.17
2023-01-13T20:32:35.683Z,27.17
2023-01-13T20:33:35.668Z,27.18
2023-01-13T20:34:35.658Z,27.17
2023-01-13T20:35:35.668Z,27.15
2023-01-13T20:36:35.625Z,27.13
2023-01-13T20:37:35.627Z,27.10
2023-01-13T20:38:35.621Z,27.06
2023-01-13T20:39:35.626Z,27.04
2023-01-13T20:40:35.604Z,27.13
2023-01-13T20:41:35.601Z,27.12
2023-01-13T20:42:35.593Z,26.99
2023-01-13T20:43:35.581Z,27.01
2023-01-13T20:44:35.577Z,26.99
2023-01-13T20:45:35.561Z,27.01
2023-01-13T20:46:35.621Z,27.04
2023-01-13T20:47:35.547Z,26.90
2023-01-13T20:48:35.535Z,26.97
2023-01-13T20:49:35.537Z,26.99
2023-01-13T20:50:35.515Z,26.96
2023-01-13T20:51:35.509Z,26.96
2023-01-13T20:52:35.501Z,26.90
2023-01-13T20:53:35.480Z,26.92
2023-01-13T20:54:35.465Z,26.93
2023-01-13T20:55:35.447Z,26.90
2023-01-13T20:56:35.421Z,26.94
2023-01-13T20:57:35.408Z,26.88
2023-01-13T20:58:35.388Z,26.84
2023-01-13T20:59:35.365Z,26.86
2023-01-13T21:00:35.350Z,26.84
2023-01-13T21:01:35.353Z,26.84
2023-01-13T21:02:35.297Z,26.90
2023-01-13T21:03:35.300Z,26.82
2023-01-13T21:04:35.283Z,26.82
2023-01-13T21:05:35.255Z,26.81
2023-01-13T21:06:35.230Z,26.81
2023-01-13T21:07:35.210Z,26.81
2023-01-13T21:08:35.189Z,26.79
2023-01-13T21:09:35.171Z,26.78
2023-01-13T21:10:35.161Z,26.78
2023-01-13T21:11:35.139Z,26.81
2023-01-13T21:12:35.116Z,26.79
2023-01-13T21:13:35.103Z,26.78
2023-01-13T21:14:35.064Z,26.71
2023-01-13T21:15:35.070Z,26.73
2023-01-13T21:16:35.057Z,26.72
2023-01-13T21:17:35.043Z,26.78
2023-01-13T21:18:35.030Z,26.73
2023-01-13T21:19:35.022Z,26.75
2023-01-13T21:20:35.010Z,26.72
2023-01-13T21:21:34.989Z,26.71
2023-01-13T21:22:34.975Z,26.65
2023-01-13T21:23:34.959Z,26.72
2023-01-13T21:24:34.945Z,26.73
2023-01-13T21:25:35.572Z,26.68
2023-01-13T21:26:34.958Z,26.65
2023-01-13T21:27:34.894Z,26.63
2023-01-13T21:28:34.880Z,26.66
2023-01-13T21:29:34.866Z,26.69
2023-01-13T21:30:34.856Z,26.66
2023-01-13T21:31:34.871Z,26.63
2023-01-13T21:32:34.823Z,26.63
2023-01-13T21:33:34.825Z,26.62
2023-01-13T21:34:34.798Z,26.63
2023-01-13T21:35:34.797Z,26.66
2023-01-13T21:36:34.765Z,26.69
2023-01-13T21:37:34.756Z,26.54
2023-01-13T21:38:34.734Z,26.59
2023-01-13T21:39:34.726Z,26.60
2023-01-13T21:40:34.713Z,26.57
2023-01-13T21:41:34.695Z,26.57
2023-01-13T21:42:34.683Z,26.63
2023-01-13T21:43:34.668Z,26.57